Time;durP1;ratioP1;P1;durP2;ratioP2;P2;SDS_P1;SDS_P2;PMS_P1;PMS_P2;Temp;Humidity;BMP_temperature;BMP_pressure;BME280_temperature;BME280_humidity;BME280_pressure;Samples;Min_cycle;Max_cycle;Signal;HPM_P1;HPM_P2
2022/03/11 00:02:11;;;;;;;;;59.25;48.75;;;;;10.23;60.05;100737.38;5048678;28;45850;-79
2022/03/11 00:04:36;;;;;;;;;56.00;44.00;;;;;10.37;60.15;100748.41;5049139;28;45668;-79
2022/03/11 00:07:01;;;;;;;;;53.67;44.00;;;;;10.29;60.52;100722.75;5049403;28;45344;-79
2022/03/11 00:09:27;;;;;;;;;55.75;44.25;;;;;10.39;60.63;100742.38;5048508;28;45726;-79
2022/03/11 00:11:52;;;;;;;;;57.33;47.33;;;;;10.41;60.67;100739.81;5049268;28;46173;-79
2022/03/11 00:14:18;;;;;;;;;51.33;43.00;;;;;10.41;60.37;100743.34;5049056;28;45603;-79
2022/03/11 00:16:43;;;;;;;;;45.00;39.75;;;;;10.42;60.51;100734.59;5048426;28;45744;-79
2022/03/11 00:19:09;;;;;;;;;55.50;44.00;;;;;10.39;60.55;100728.34;5049166;28;45398;-79
2022/03/11 00:21:34;;;;;;;;;53.00;43.50;;;;;10.25;60.33;100709.50;5048871;28;46177;-79
2022/03/11 00:23:59;;;;;;;;;55.50;43.75;;;;;10.17;60.61;100710.91;5048591;28;45724;-80
2022/03/11 00:26:25;;;;;;;;;49.00;40.33;;;;;10.25;60.77;100735.75;5048815;28;45375;-79
2022/03/11 00:28:51;;;;;;;;;56.50;45.00;;;;;10.11;60.66;100724.72;5049354;28;45460;-79
2022/03/11 00:31:16;;;;;;;;;49.50;42.75;;;;;10.02;60.99;100704.28;5048300;28;46587;-79
2022/03/11 00:33:42;;;;;;;;;50.25;43.25;;;;;10.09;61.07;100727.28;5048272;28;45320;-79
2022/03/11 00:36:07;;;;;;;;;49.00;41.50;;;;;9.97;61.39;100702.31;5028747;28;45408;-79
2022/03/11 00:38:33;;;;;;;;;52.25;42.50;;;;;10.01;61.09;100701.59;5027948;28;45457;-79
2022/03/11 00:40:58;;;;;;;;;45.75;39.25;;;;;10.01;61.33;100691.09;5029409;28;45957;-79
2022/03/11 00:43:24;;;;;;;;;51.25;41.00;;;;;10.27;61.28;100720.94;5032233;28;45885;-79
2022/03/11 00:45:49;;;;;;;;;50.50;41.50;;;;;10.30;61.16;100706.19;5032216;28;45478;-79
2022/03/11 00:48:15;;;;;;;;;49.75;39.75;;;;;10.29;61.00;100700.84;5031977;28;45419;-79
2022/03/11 00:50:40;;;;;;;;;46.75;38.75;;;;;10.39;61.10;100702.06;5032225;28;45409;-79
2022/03/11 00:53:05;;;;;;;;;42.67;39.00;;;;;10.43;61.07;100706.59;5031295;28;45489;-79
2022/03/11 00:55:31;;;;;;;;;39.67;36.00;;;;;10.42;60.99;100687.31;5031861;28;46126;-79
2022/03/11 00:57:56;;;;;;;;;46.67;40.00;;;;;10.42;61.02;100692.56;5032354;28;45434;-79
2022/03/11 01:00:21;;;;;;;;;45.67;40.67;;;;;10.40;61.15;100690.75;5029793;28;47414;-79
2022/03/11 01:02:47;;;;;;;;;51.00;42.50;;;;;10.24;60.94;100663.03;5032479;28;45668;-79
2022/03/11 01:05:12;;;;;;;;;44.25;38.75;;;;;10.17;60.75;100648.78;5032150;28;45487;-79
2022/03/11 01:07:38;;;;;;;;;51.50;43.25;;;;;10.24;61.19;100656.03;5031593;28;45372;-79
2022/03/11 01:10:05;;;;;;;;;48.00;41.50;;;;;10.38;61.18;100679.28;5031441;28;46434;-79
2022/03/11 01:12:30;;;;;;;;;43.50;39.50;;;;;10.24;61.11;100670.91;5031355;28;45751;-79
2022/03/11 01:14:56;;;;;;;;;50.25;40.75;;;;;10.22;61.18;100657.69;5031918;28;45526;-79
2022/03/11 01:17:21;;;;;;;;;43.25;38.75;;;;;10.23;61.46;100663.84;5031144;28;45439;-79
2022/03/11 01:19:47;;;;;;;;;47.75;39.75;;;;;10.32;61.40;100687.84;5031702;28;45521;-79
2022/03/11 01:22:12;;;;;;;;;50.33;40.67;;;;;10.31;61.22;100684.31;5031385;28;45348;-79
2022/03/11 01:24:37;;;;;;;;;51.50;42.75;;;;;10.25;61.22;100668.34;5030891;28;45457;-79
2022/03/11 01:27:03;;;;;;;;;50.67;42.00;;;;;10.06;61.11;100648.41;5031701;28;45487;-79
2022/03/11 01:29:28;;;;;;;;;48.00;40.25;;;;;10.28;61.38;100684.19;5030538;28;45657;-79
2022/03/11 01:31:54;;;;;;;;;53.00;42.50;;;;;10.19;61.36;100652.31;5031016;28;45714;-79
2022/03/11 01:34:20;;;;;;;;;51.67;44.33;;;;;10.27;61.55;100661.41;5037304;28;45232;-79
2022/03/11 01:36:45;;;;;;;;;38.25;34.75;;;;;10.29;61.43;100656.19;5051425;28;45684;-79
2022/03/11 01:39:11;;;;;;;;;42.75;36.00;;;;;10.32;61.51;100649.31;5050642;28;45708;-79
2022/03/11 01:41:36;;;;;;;;;39.50;34.75;;;;;10.22;61.23;100618.31;5051225;28;45612;-79
2022/03/11 01:44:04;;;;;;;;;30.25;27.25;;;;;10.43;61.15;100643.53;5051777;28;45494;-79
2022/03/11 01:46:30;;;;;;;;;24.25;23.75;;;;;10.41;60.96;100634.72;5050840;28;45305;-79
2022/03/11 01:48:56;;;;;;;;;22.00;19.00;;;;;10.35;61.44;100610.88;5033524;28;48376;-79
2022/03/11 01:51:22;;;;;;;;;30.25;28.00;;;;;10.48;61.07;100634.06;5050945;28;45455;-79
2022/03/11 01:53:47;;;;;;;;;29.00;27.00;;;;;10.53;61.06;100628.13;5050174;28;45707;-79
2022/03/11 01:56:13;;;;;;;;;31.50;26.75;;;;;10.58;60.70;100625.66;5050610;28;45455;-79
2022/03/11 01:58:39;;;;;;;;;23.50;22.25;;;;;10.73;60.27;100647.16;5051263;28;45529;-79
2022/03/11 02:01:04;;;;;;;;;32.25;26.75;;;;;10.77;60.11;100643.78;5050697;28;45497;-79
2022/03/11 02:03:31;;;;;;;;;28.25;27.00;;;;;10.79;60.13;100639.50;5050947;28;45375;-79
2022/03/11 02:05:59;;;;;;;;;28.25;24.50;;;;;10.76;60.11;100631.50;5051579;28;45505;-79
2022/03/11 02:08:24;;;;;;;;;27.75;24.75;;;;;10.90;59.90;100645.09;5050150;28;45478;-79
2022/03/11 02:10:49;;;;;;;;;25.33;24.33;;;;;10.93;59.67;100637.28;5050895;28;50480;-79
2022/03/11 02:13:15;;;;;;;;;26.50;24.25;;;;;10.89;59.29;100631.91;5050861;28;45469;-80
2022/03/11 02:15:40;;;;;;;;;29.50;27.50;;;;;10.80;59.26;100612.34;5050529;28;45677;-79
2022/03/11 02:18:05;;;;;;;;;28.00;26.00;;;;;10.88;59.56;100623.09;5051106;28;48861;-79
2022/03/11 02:20:31;;;;;;;;;29.67;28.00;;;;;10.98;59.49;100621.66;5050529;28;45509;-79
2022/03/11 02:22:58;;;;;;;;;27.75;26.00;;;;;10.99;59.39;100633.97;5050559;28;45530;-79
2022/03/11 02:25:23;;;;;;;;;31.50;29.00;;;;;10.88;59.10;100614.31;5050107;28;45551;-80
2022/03/11 02:27:48;;;;;;;;;28.00;27.00;;;;;10.88;59.17;100599.44;5050770;28;45690;-79
2022/03/11 02:30:18;;;;;;;;;29.25;27.25;;;;;11.02;59.14;100624.41;5050115;28;45407;-79
2022/03/11 02:32:44;;;;;;;;;26.00;26.00;;;;;11.01;58.94;100627.00;5050898;28;45515;-79
2022/03/11 02:35:10;;;;;;;;;28.00;26.50;;;;;10.99;59.26;100626.09;5037406;28;45476;-79
2022/03/11 02:37:36;;;;;;;;;27.25;26.25;;;;;10.90;59.38;100608.28;5029711;28;45229;-79
2022/03/11 02:40:03;;;;;;;;;29.25;28.00;;;;;10.90;59.23;100610.91;5028532;28;45556;-79
2022/03/11 02:42:29;;;;;;;;;27.75;25.50;;;;;10.89;59.73;100614.38;5030131;28;45470;-79
2022/03/11 02:44:54;;;;;;;;;32.00;29.75;;;;;10.74;59.63;100600.78;5030172;28;45633;-79
2022/03/11 02:47:20;;;;;;;;;28.75;26.50;;;;;10.69;59.50;100613.75;5029793;28;46196;-79
2022/03/11 02:49:45;;;;;;;;;28.50;26.00;;;;;10.51;59.81;100585.16;5030464;28;45542;-79
2022/03/11 02:52:10;;;;;;;;;27.75;26.75;;;;;10.55;59.81;100604.53;5029877;28;45506;-79
2022/03/11 02:54:36;;;;;;;;;37.25;31.25;;;;;10.47;60.15;100600.75;5029991;28;45750;-79
2022/03/11 02:57:01;;;;;;;;;32.50;27.75;;;;;10.30;60.21;100584.47;5028492;28;46090;-79
2022/03/11 02:59:27;;;;;;;;;27.25;24.25;;;;;10.31;60.37;100595.00;5028293;28;45541;-79
2022/03/11 03:01:52;;;;;;;;;29.25;27.00;;;;;10.14;60.13;100571.59;5029097;28;45441;-79
2022/03/11 03:04:18;;;;;;;;;24.25;20.00;;;;;10.07;60.79;100570.53;5030180;28;45636;-79
2022/03/11 03:06:43;;;;;;;;;26.50;25.75;;;;;10.12;60.65;100582.06;5029672;28;46568;-79
2022/03/11 03:09:08;;;;;;;;;23.00;21.25;;;;;10.06;60.68;100581.88;5029682;28;45435;-79
2022/03/11 03:11:34;;;;;;;;;26.00;24.00;;;;;9.98;61.25;100576.34;5028291;28;45463;-79
2022/03/11 03:13:59;;;;;;;;;28.75;24.50;;;;;9.81;61.11;100549.53;5030227;28;45518;-79
2022/03/11 03:16:25;;;;;;;;;31.33;25.67;;;;;9.78;61.33;100541.53;5029665;28;46590;-79
2022/03/11 03:18:50;;;;;;;;;25.50;24.25;;;;;9.87;61.35;100558.44;5030281;28;45364;-79
2022/03/11 03:21:15;;;;;;;;;24.75;24.25;;;;;9.81;61.50;100557.41;5029193;28;45487;-80
2022/03/11 03:23:41;;;;;;;;;26.75;25.00;;;;;9.78;61.19;100548.53;5030096;28;45352;-79
2022/03/11 03:26:06;;;;;;;;;27.75;25.00;;;;;9.63;61.73;100530.50;5027720;28;46376;-79
2022/03/11 03:28:31;;;;;;;;;25.50;22.75;;;;;9.57;61.43;100543.44;5029283;28;45389;-79
2022/03/11 03:30:57;;;;;;;;;25.50;23.75;;;;;9.66;61.93;100567.38;5030213;28;45512;-79
2022/03/11 03:33:22;;;;;;;;;24.50;22.50;;;;;9.61;61.87;100562.81;5029554;28;45362;-79
2022/03/11 03:35:47;;;;;;;;;18.50;17.50;;;;;9.50;62.06;100562.38;5047892;28;46235;-79
2022/03/11 03:38:13;;;;;;;;;22.75;22.00;;;;;9.54;62.14;100570.44;5049423;28;45370;-79
2022/03/11 03:40:38;;;;;;;;;24.00;22.00;;;;;9.35;62.46;100541.75;5049189;28;45344;-79
2022/03/11 03:43:04;;;;;;;;;23.75;23.00;;;;;9.39;62.26;100550.63;5049079;28;45370;-79
2022/03/11 03:45:31;;;;;;;;;24.50;24.00;;;;;9.41;62.71;100555.09;5049304;28;47146;-79
2022/03/11 03:47:56;;;;;;;;;23.50;23.00;;;;;9.39;62.62;100559.38;5050183;28;45691;-79
2022/03/11 03:50:21;;;;;;;;;25.25;24.25;;;;;9.21;62.71;100527.25;5048849;28;45477;-79
2022/03/11 03:52:47;;;;;;;;;25.25;24.50;;;;;9.23;62.73;100525.59;5049856;28;45505;-79
2022/03/11 03:55:12;;;;;;;;;21.67;20.67;;;;;9.13;62.86;100524.34;5048700;28;46742;-79
2022/03/11 03:57:38;;;;;;;;;22.33;21.33;;;;;9.26;62.73;100547.56;5048542;28;47697;-79
2022/03/11 04:00:05;;;;;;;;;25.00;23.25;;;;;9.12;62.82;100517.34;5049388;28;45388;-79
2022/03/11 04:02:32;;;;;;;;;23.00;20.25;;;;;9.24;63.04;100545.72;5049019;28;45309;-79
2022/03/11 04:04:58;;;;;;;;;28.00;24.00;;;;;9.20;63.29;100542.09;5049424;28;45454;-79
2022/03/11 04:07:23;;;;;;;;;19.25;19.25;;;;;9.14;63.14;100531.38;5048841;28;45359;-79
2022/03/11 04:09:48;;;;;;;;;25.00;23.00;;;;;9.09;63.37;100526.81;5047776;28;45810;-79
2022/03/11 04:12:14;;;;;;;;;25.33;23.33;;;;;9.03;63.49;100517.88;5049036;28;45531;-79
2022/03/11 04:14:39;;;;;;;;;29.25;24.50;;;;;8.93;63.25;100499.16;5048493;28;45535;-79
2022/03/11 04:17:04;;;;;;;;;17.25;15.75;;;;;8.88;63.31;100505.94;5051642;28;45471;-79
2022/03/11 04:19:30;;;;;;;;;20.50;20.00;;;;;8.87;63.61;100507.69;5052532;28;45437;-79
2022/03/11 04:21:55;;;;;;;;;21.00;20.75;;;;;8.80;63.92;100492.53;5052692;28;45473;-79
2022/03/11 04:24:21;;;;;;;;;21.67;20.33;;;;;8.89;63.70;100513.84;5050588;28;48183;-79
2022/03/11 04:26:46;;;;;;;;;19.00;17.50;;;;;8.86;63.78;100508.47;5052814;28;45413;-79
2022/03/11 04:29:12;;;;;;;;;23.25;21.25;;;;;8.90;64.08;100518.25;5052107;28;45493;-79
2022/03/11 04:31:38;;;;;;;;;17.50;17.00;;;;;8.83;64.18;100524.13;5052805;28;45571;-79
2022/03/11 04:34:04;;;;;;;;;20.00;20.00;;;;;8.86;64.17;100537.31;5048480;28;45561;-79
2022/03/11 04:36:32;;;;;;;;;21.00;19.25;;;;;8.87;64.20;100530.38;5031504;28;45434;-79
2022/03/11 04:38:58;;;;;;;;;22.00;20.25;;;;;8.71;64.51;100507.91;5032364;28;45717;-79
2022/03/11 04:41:24;;;;;;;;;21.75;20.25;;;;;8.73;64.40;100519.34;5031842;28;45479;-79
2022/03/11 04:43:49;;;;;;;;;22.75;21.50;;;;;8.72;64.44;100514.97;5031715;28;45929;-79
2022/03/11 04:46:14;;;;;;;;;22.00;21.75;;;;;8.76;64.47;100522.97;5032029;28;47007;-79
2022/03/11 04:48:43;;;;;;;;;21.00;18.67;;;;;8.78;64.61;100528.28;5032056;28;51087;-79
2022/03/11 04:51:08;;;;;;;;;15.75;14.50;;;;;8.79;64.81;100535.31;5031719;28;45350;-79
2022/03/11 04:53:34;;;;;;;;;16.75;15.75;;;;;8.71;64.75;100521.91;5031877;28;45514;-79
2022/03/11 04:55:59;;;;;;;;;21.50;20.75;;;;;8.79;64.50;100530.94;5031676;28;45523;-79
2022/03/11 04:58:24;;;;;;;;;20.00;16.33;;;;;8.66;64.58;100510.34;5031373;28;45649;-79
2022/03/11 05:00:50;;;;;;;;;20.00;19.25;;;;;8.52;64.66;100488.88;5032292;28;45373;-79
2022/03/11 05:03:15;;;;;;;;;20.00;18.00;;;;;8.61;64.91;100501.41;5030033;28;47252;-79
2022/03/11 05:05:40;;;;;;;;;18.25;15.00;;;;;8.73;65.02;100520.25;5031455;28;45658;-79
2022/03/11 05:08:06;;;;;;;;;19.00;17.25;;;;;8.73;64.83;100508.88;5031954;28;45313;-79
2022/03/11 05:10:31;;;;;;;;;17.50;17.00;;;;;8.61;64.64;100498.81;5031342;28;45812;-79
2022/03/11 05:12:57;;;;;;;;;21.50;21.25;;;;;8.56;65.03;100475.88;5031224;28;45739;-79
2022/03/11 05:15:24;;;;;;;;;21.67;16.00;;;;;8.57;64.96;100477.66;5031250;28;45452;-79
2022/03/11 05:17:50;;;;;;;;;17.25;16.00;;;;;8.68;65.34;100499.94;5031828;28;45445;-79
2022/03/11 05:20:16;;;;;;;;;16.75;15.75;;;;;8.67;65.27;100499.06;5031055;28;45526;-79
2022/03/11 05:22:42;;;;;;;;;17.67;16.33;;;;;8.39;65.36;100452.56;5031507;28;51609;-79
2022/03/11 05:25:08;;;;;;;;;26.00;23.50;;;;;8.65;65.19;100497.19;5031286;28;45681;-79
2022/03/11 05:27:34;;;;;;;;;18.25;17.50;;;;;8.52;65.46;100477.50;5031855;28;45480;-79
2022/03/11 05:29:59;;;;;;;;;20.25;20.25;;;;;8.62;65.24;100481.34;5041607;28;45216;-79
2022/03/11 05:32:24;;;;;;;;;28.00;25.67;;;;;8.60;65.32;100486.53;5041092;28;54803;-80
2022/03/11 05:34:50;;;;;;;;;26.00;22.33;;;;;8.58;65.19;100482.09;5058870;28;45258;-79
2022/03/11 05:37:15;;;;;;;;;28.00;26.00;;;;;8.25;65.07;100432.78;5069890;28;44843;-79
2022/03/11 05:39:41;;;;;;;;;30.75;28.75;;;;;8.40;65.28;100458.69;5069558;28;45005;-79
2022/03/11 05:42:07;;;;;;;;;22.75;20.50;;;;;8.26;65.51;100448.53;5050868;28;47531;-79
2022/03/11 05:44:33;;;;;;;;;32.75;26.75;;;;;7.88;65.51;100376.41;5070251;28;45168;-79
2022/03/11 05:46:58;;;;;;;;;19.50;18.00;;;;;8.44;65.24;100479.84;5070593;28;44970;-79
2022/03/11 05:49:24;;;;;;;;;19.33;19.00;;;;;8.26;65.44;100453.78;5069811;28;45280;-79
2022/03/11 05:51:49;;;;;;;;;15.50;14.00;;;;;7.78;65.78;100365.50;5070370;28;45425;-79
2022/03/11 05:54:15;;;;;;;;;20.25;18.00;;;;;8.39;65.73;100480.50;5050441;28;45163;-80
2022/03/11 05:56:41;;;;;;;;;18.75;15.50;;;;;8.25;65.68;100454.63;5063398;28;45477;-79
2022/03/11 05:59:06;;;;;;;;;19.25;19.25;;;;;8.39;65.83;100477.88;5070128;28;45123;-79
2022/03/11 06:01:33;;;;;;;;;18.75;15.50;;;;;8.33;66.22;100469.75;5070034;28;45272;-79
2022/03/11 06:03:58;;;;;;;;;15.00;14.75;;;;;8.12;66.06;100436.63;5069978;28;45071;-79
2022/03/11 06:06:23;;;;;;;;;14.50;13.25;;;;;8.12;65.84;100436.63;5069881;28;45496;-79
2022/03/11 06:08:49;;;;;;;;;14.00;14.00;;;;;8.09;66.06;100420.84;5070159;28;45077;-79
2022/03/11 06:11:14;;;;;;;;;14.50;13.75;;;;;8.26;66.22;100456.41;5069590;28;45523;-79
2022/03/11 06:13:40;;;;;;;;;19.25;16.75;;;;;8.10;66.21;100434.81;5070260;28;44997;-80
2022/03/11 06:16:05;;;;;;;;;19.25;16.25;;;;;8.45;66.42;100480.72;5070369;28;45539;-80
2022/03/11 06:18:31;;;;;;;;;14.00;14.00;;;;;8.48;66.27;100480.84;5065866;28;45233;-79
2022/03/11 06:20:57;;;;;;;;;16.50;14.75;;;;;8.52;66.43;100469.63;5052584;28;45593;-80
2022/03/11 06:23:23;;;;;;;;;14.00;13.50;;;;;8.38;66.14;100452.53;5065941;28;45156;-79
2022/03/11 06:25:48;;;;;;;;;14.00;13.50;;;;;8.36;66.08;100441.06;5069603;28;44957;-79
2022/03/11 06:28:14;;;;;;;;;11.25;10.00;;;;;8.59;66.33;100469.06;5069531;28;45383;-79
2022/03/11 06:30:39;;;;;;;;;8.00;7.00;;;;;8.63;66.47;100473.56;5069794;28;46589;-79
2022/03/11 06:33:06;;;;;;;;;14.25;14.25;;;;;8.48;66.61;100436.31;5059381;28;45386;-79
2022/03/11 06:35:32;;;;;;;;;14.00;12.50;;;;;8.70;66.80;100467.72;5038206;28;45490;-79
2022/03/11 06:37:57;;;;;;;;;14.75;13.50;;;;;8.56;66.59;100429.63;5039410;28;45411;-79
2022/03/11 06:40:22;;;;;;;;;9.00;9.00;;;;;8.82;66.54;100458.53;5040639;28;46778;-79
2022/03/11 06:42:49;;;;;;;;;13.50;13.00;;;;;8.89;66.39;100452.69;5048376;28;45249;-79
2022/03/11 06:45:16;;;;;;;;;14.75;11.75;;;;;8.93;66.56;100452.84;5049140;28;45270;-79
2022/03/11 06:47:42;;;;;;;;;14.25;13.50;;;;;9.02;66.47;100452.31;5045982;28;45263;-79
2022/03/11 06:50:08;;;;;;;;;9.75;9.75;;;;;8.98;66.25;100429.44;5038725;28;45873;-79
2022/03/11 06:52:34;;;;;;;;;14.25;13.00;;;;;9.06;66.17;100422.72;5032570;28;45632;-79
2022/03/11 06:54:59;;;;;;;;;11.50;11.50;;;;;9.25;66.12;100445.22;5031172;28;45618;-79
2022/03/11 06:57:25;;;;;;;;;10.00;9.50;;;;;9.23;66.30;100432.06;5030080;28;45616;-80
2022/03/11 06:59:51;;;;;;;;;12.25;11.50;;;;;9.19;65.70;100417.06;5049148;28;45562;-80
2022/03/11 07:02:16;;;;;;;;;11.50;11.00;;;;;9.37;65.99;100440.44;5048760;28;45138;-80
2022/03/11 07:04:42;;;;;;;;;14.50;13.50;;;;;9.44;65.84;100447.66;5049059;28;45107;-79
2022/03/11 07:07:08;;;;;;;;;11.75;10.75;;;;;9.48;65.82;100454.78;5039453;28;45529;-79
2022/03/11 07:09:34;;;;;;;;;11.00;10.25;;;;;9.55;65.70;100453.25;5047825;28;45474;-80
2022/03/11 07:12:03;;;;;;;;;15.00;14.00;;;;;9.47;65.90;100423.28;5047194;28;45521;-79
2022/03/11 07:14:35;;;;;;;;;10.50;10.50;;;;;9.42;65.55;100390.75;5036763;28;45358;-80
2022/03/11 07:17:05;;;;;;;;;15.00;13.50;;;;;9.72;65.62;100428.50;5036562;28;45351;-79
2022/03/11 07:19:31;;;;;;;;;11.75;11.50;;;;;9.71;65.29;100418.84;5046870;28;45297;-79
2022/03/11 07:21:57;;;;;;;;;10.25;10.00;;;;;9.85;65.11;100431.50;5046566;28;45320;-79
2022/03/11 07:24:23;;;;;;;;;11.00;10.50;;;;;9.88;65.23;100437.75;5042130;28;45388;-79
2022/03/11 07:26:50;;;;;;;;;10.00;9.50;;;;;9.79;65.17;100413.81;5046032;28;45316;-80
2022/03/11 07:29:16;;;;;;;;;11.00;10.75;;;;;9.97;65.44;100437.16;5048145;28;46073;-79
2022/03/11 07:31:41;;;;;;;;;9.50;8.50;;;;;9.98;65.02;100426.69;5048415;28;48201;-80
2022/03/11 07:34:07;;;;;;;;;10.25;9.75;;;;;9.89;65.37;100408.03;5044401;28;45103;-79
2022/03/11 07:36:34;;;;;;;;;10.00;9.00;;;;;9.87;65.09;100395.72;5053313;28;45424;-79
2022/03/11 07:39:01;;;;;;;;;10.00;9.75;;;;;10.08;65.01;100417.38;5057226;28;47397;-79
2022/03/11 07:41:26;;;;;;;;;10.00;9.75;;;;;10.02;64.83;100406.69;5054648;28;45844;-80
2022/03/11 07:43:52;;;;;;;;;12.75;12.50;;;;;10.02;65.12;100393.56;5068809;28;45071;-79
2022/03/11 07:46:18;;;;;;;;;11.25;9.25;;;;;10.20;64.77;100412.53;5068199;28;45487;-79
2022/03/11 07:48:43;;;;;;;;;8.75;8.00;;;;;9.96;64.89;100364.50;5055834;28;45405;-80
2022/03/11 07:51:09;;;;;;;;;11.50;10.00;;;;;10.29;65.16;100401.41;5047852;28;45377;-79
2022/03/11 07:53:36;;;;;;;;;10.75;9.25;;;;;10.35;64.72;100400.72;5049023;28;45570;-80
2022/03/11 07:56:04;;;;;;;;;10.00;9.00;;;;;10.44;64.21;100403.59;5049116;28;45298;-80
2022/03/11 07:58:30;;;;;;;;;9.50;8.75;;;;;10.41;63.99;100369.38;5048991;28;45384;-80
2022/03/11 08:00:55;;;;;;;;;8.75;8.50;;;;;10.56;64.13;100386.47;5049667;28;45456;-80
2022/03/11 08:03:21;;;;;;;;;9.00;9.00;;;;;10.59;63.63;100383.06;5048899;28;46230;-79
2022/03/11 08:05:47;;;;;;;;;9.50;8.75;;;;;10.44;64.04;100346.72;5049507;28;45430;-79
2022/03/11 08:08:12;;;;;;;;;11.50;10.50;;;;;10.62;64.11;100359.47;5048690;28;45439;-80
2022/03/11 08:10:39;;;;;;;;;12.00;9.00;;;;;10.83;63.89;100375.81;5048258;28;45364;-81
2022/03/11 08:13:08;;;;;;;;;9.00;8.00;;;;;10.85;63.44;100370.63;5049315;28;45364;-80
2022/03/11 08:15:34;;;;;;;;;9.50;9.25;;;;;10.89;63.27;100377.75;5030764;28;45558;-80
2022/03/11 08:18:00;;;;;;;;;5.75;5.25;;;;;10.99;63.12;100381.53;5048840;28;48804;-81
2022/03/11 08:20:26;;;;;;;;;10.00;8.50;;;;;11.05;63.11;100379.06;5048663;28;45525;-80
2022/03/11 08:22:51;;;;;;;;;7.75;7.25;;;;;11.06;62.94;100359.78;5049315;28;45525;-80
2022/03/11 08:25:18;;;;;;;;;10.00;9.00;;;;;11.21;62.47;100375.97;5029674;28;45832;-80
2022/03/11 08:27:44;;;;;;;;;9.25;9.25;;;;;11.18;62.50;100351.31;5049030;28;45531;-80
2022/03/11 08:30:11;;;;;;;;;6.50;5.75;;;;;11.36;62.19;100362.31;5048854;28;45446;-81
2022/03/11 08:32:38;;;;;;;;;8.75;8.25;;;;;11.47;61.72;100363.47;5048594;28;45407;-81
2022/03/11 08:35:03;;;;;;;;;5.50;5.50;;;;;11.40;61.67;100334.34;5036764;28;45682;-80
2022/03/11 08:37:29;;;;;;;;;6.00;6.00;;;;;11.59;61.29;100352.38;5028136;28;45516;-80
2022/03/11 08:39:54;;;;;;;;;5.00;4.75;;;;;11.44;61.17;100323.06;5028267;28;45587;-81
2022/03/11 08:42:20;;;;;;;;;6.75;6.00;;;;;11.64;61.19;100356.00;5028425;28;45619;-79
2022/03/11 08:44:46;;;;;;;;;5.75;5.00;;;;;11.71;61.34;100342.13;5028994;28;45429;-80
2022/03/11 08:47:12;;;;;;;;;8.00;8.00;;;;;11.78;61.32;100351.94;5026523;28;47511;-81
2022/03/11 08:49:38;;;;;;;;;8.00;7.00;;;;;11.85;60.68;100347.75;5027313;28;45929;-81
2022/03/11 08:52:04;;;;;;;;;6.25;5.75;;;;;11.97;60.80;100347.13;5027302;28;45551;-81
2022/03/11 08:54:29;;;;;;;;;4.50;4.00;;;;;12.10;60.39;100349.19;5028017;28;45622;-81
2022/03/11 08:56:55;;;;;;;;;5.00;5.00;;;;;12.09;60.52;100324.59;5028672;28;45519;-81
2022/03/11 08:59:21;;;;;;;;;4.25;4.00;;;;;12.14;59.96;100306.25;5028026;28;45312;-81
2022/03/11 09:01:47;;;;;;;;;3.00;2.50;;;;;12.35;59.65;100330.41;5029151;28;45481;-81
2022/03/11 09:04:12;;;;;;;;;5.00;4.75;;;;;12.36;59.45;100321.66;5031834;28;46558;-81
2022/03/11 09:06:38;;;;;;;;;7.00;6.00;;;;;12.30;59.80;100300.41;5031682;28;46240;-81
2022/03/11 09:09:04;;;;;;;;;3.25;3.25;;;;;12.50;59.37;100332.44;5029661;28;45698;-81
2022/03/11 09:11:31;;;;;;;;;6.00;5.00;;;;;12.48;59.35;100334.19;5031856;28;45497;-80
2022/03/11 09:13:56;;;;;;;;;6.00;5.00;;;;;12.51;59.23;100323.72;5032214;28;45695;-81
2022/03/11 09:16:22;;;;;;;;;4.50;3.75;;;;;12.63;59.24;100336.22;5030922;28;45616;-81
2022/03/11 09:18:47;;;;;;;;;3.75;3.00;;;;;12.59;59.09;100301.00;5031712;28;45441;-81
2022/03/11 09:21:13;;;;;;;;;3.00;3.00;;;;;12.80;59.14;100289.97;5031445;28;45509;-81
2022/03/11 09:23:39;;;;;;;;;4.50;4.00;;;;;13.20;58.46;100332.91;5030858;28;45392;-81
2022/03/11 09:26:04;;;;;;;;;5.50;4.75;;;;;13.38;58.00;100327.94;5031531;28;46324;-81
2022/03/11 09:28:31;;;;;;;;;4.00;4.00;;;;;13.29;57.73;100305.78;5031664;28;45442;-81
2022/03/11 09:30:57;;;;;;;;;3.00;3.00;;;;;13.62;57.48;100329.22;5031617;28;45752;-81
2022/03/11 09:33:22;;;;;;;;;3.75;3.75;;;;;13.60;56.83;100302.78;5031617;28;45699;-81
2022/03/11 09:35:48;;;;;;;;;3.50;3.25;;;;;13.70;56.50;100301.19;5049997;28;45817;-81
2022/03/11 09:38:13;;;;;;;;;2.00;2.00;;;;;13.91;56.39;100322.59;5050506;28;47785;-80
2022/03/11 09:40:42;;;;;;;;;3.25;2.75;;;;;13.73;55.73;100293.28;5051284;28;45811;-81
2022/03/11 09:43:11;;;;;;;;;3.75;3.75;;;;;13.81;55.87;100315.41;5051126;28;45477;-81
2022/03/11 09:45:37;;;;;;;;;4.25;4.00;;;;;13.62;55.81;100298.41;5050878;28;45387;-81
2022/03/11 09:48:04;;;;;;;;;2.75;2.75;;;;;13.76;55.97;100317.09;5033233;28;45885;-81
2022/03/11 09:50:29;;;;;;;;;3.00;3.00;;;;;13.54;55.73;100271.00;5051282;28;45758;-81
2022/03/11 09:52:55;;;;;;;;;3.00;3.00;;;;;13.74;56.30;100305.59;5051206;28;45414;-81
2022/03/11 09:55:21;;;;;;;;;2.75;2.75;;;;;13.76;55.97;100295.97;5050411;28;45748;-81
2022/03/11 09:57:47;;;;;;;;;4.00;3.00;;;;;13.70;56.39;100281.81;5051334;28;45490;-81
2022/03/11 10:00:13;;;;;;;;;5.00;4.75;;;;;13.63;56.36;100272.88;5051134;28;45451;-81
2022/03/11 10:02:44;;;;;;;;;4.00;4.00;;;;;13.58;56.84;100269.28;5050726;28;45398;-81
2022/03/11 10:05:10;;;;;;;;;3.50;3.50;;;;;13.64;57.70;100298.41;5050904;28;45826;-81
2022/03/11 10:07:35;;;;;;;;;4.25;4.00;;;;;13.73;57.55;100280.06;5050855;28;45381;-81
2022/03/11 10:10:14;;;;;;;;;5.00;4.00;;;;;13.92;57.61;100274.19;5050819;28;45659;-81
2022/03/11 10:12:45;;;;;;;;;4.00;3.75;;;;;14.09;57.61;100270.88;5051058;28;45406;-81
2022/03/11 10:15:12;;;;;;;;;3.25;3.25;;;;;14.20;57.67;100253.41;5049490;28;45502;-80
2022/03/11 10:17:40;;;;;;;;;5.75;5.25;;;;;14.43;57.18;100275.72;5050487;28;45768;-80
2022/03/11 10:20:08;;;;;;;;;4.00;4.00;;;;;14.37;57.03;100253.56;5050887;28;45454;-81
2022/03/11 10:22:34;;;;;;;;;4.25;4.00;;;;;14.50;56.54;100267.88;5050611;28;45726;-81
2022/03/11 10:25:12;;;;;;;;;5.25;4.50;;;;;14.39;56.46;100276.53;5050382;28;46295;-81
2022/03/11 10:28:03;;;;;;;;;3.50;2.00;;;;;14.32;56.79;100282.59;5032452;28;45890;-81
2022/03/11 10:30:34;;;;;;;;;5.75;5.00;;;;;14.12;56.47;100244.47;5050066;28;45493;-81
2022/03/11 10:33:03;;;;;;;;;4.75;4.75;;;;;14.13;56.17;100259.47;5050737;28;45493;-81
2022/03/11 10:35:30;;;;;;;;;5.25;4.75;;;;;14.18;56.53;100286.84;5033982;28;46246;-81
2022/03/11 10:38:16;;;;;;;;;4.50;4.25;;;;;13.96;56.66;100253.09;5030275;28;45851;-81
2022/03/11 10:40:53;;;;;;;;;4.00;4.00;;;;;14.00;56.88;100262.84;5030221;28;45618;-81
2022/03/11 10:43:25;;;;;;;;;4.50;4.25;;;;;14.08;57.52;100277.00;5030157;28;45392;-80
2022/03/11 10:45:54;;;;;;;;;3.75;3.75;;;;;14.02;57.93;100267.25;5030124;28;46093;-80
2022/03/11 10:48:51;;;;;;;;;3.00;3.00;;;;;13.92;58.66;100273.28;5030029;28;46056;-81
2022/03/11 10:51:32;;;;;;;;;4.50;4.50;;;;;13.79;58.64;100261.69;5030274;28;45679;-80
2022/03/11 10:54:00;;;;;;;;;4.00;3.75;;;;;13.85;58.33;100289.94;5029902;28;45441;-80
2022/03/11 10:56:33;;;;;;;;;5.00;4.00;;;;;13.82;58.33;100305.72;5030386;28;45821;-81
2022/03/11 10:58:59;;;;;;;;;6.25;6.00;;;;;13.70;58.41;100293.25;5030324;28;45403;-81
2022/03/11 11:01:42;;;;;;;;;5.75;4.00;;;;;13.66;58.12;100297.59;5029993;28;45431;-80
2022/03/11 11:04:10;;;;;;;;;4.00;4.00;;;;;13.58;58.68;100290.41;5030289;28;45559;-81
2022/03/11 11:06:36;;;;;;;;;4.50;4.50;;;;;13.46;58.96;100282.31;5029888;28;45446;-81
2022/03/11 11:09:03;;;;;;;;;5.75;4.75;;;;;13.56;59.65;100306.25;5029404;28;45478;-80
2022/03/11 11:11:30;;;;;;;;;5.25;5.25;;;;;13.54;59.96;100289.47;5029936;28;45316;-80
2022/03/11 11:13:55;;;;;;;;;5.75;5.25;;;;;13.51;60.58;100283.28;5029236;28;45728;-80